Time;durP1;ratioP1;P1;durP2;ratioP2;P2;SDS_P1;SDS_P2;PMS_P1;PMS_P2;Temp;Humidity;BMP_temperature;BMP_pressure;BME280_temperature;BME280_humidity;BME280_pressure;Samples;Min_cycle;Max_cycle;Signal;HPM_P1;HPM_P2
2023/01/21 00:00:04;;;;;;;;;;;;;;;-1.89;76.88;98377.31;4899684;29;19928;-79
2023/01/21 00:02:57;;;;;;;;;;;;;;;-1.88;76.92;98378.94;4899796;29;20283;-79
2023/01/21 00:05:50;;;;;;;;;;;;;;;-1.99;77.11;98377.00;4903618;29;19928;-80
2023/01/21 00:08:21;;;;;;;;;;;;;;;-1.97;77.72;98385.56;4893787;29;19928;-79
2023/01/21 00:10:49;;;;;;;;;;;;;;;-1.95;77.63;98383.50;4899211;29;20018;-79
2023/01/21 00:13:18;;;;;;;;;;;;;;;-1.99;77.80;98390.31;4889487;29;20422;-79
2023/01/21 00:15:46;;;;;;;;;;;;;;;-1.93;77.99;98382.25;4882619;29;19934;-75
2023/01/21 00:18:16;;;;;;;;;;;;;;;-1.90;78.17;98386.34;4896054;29;19927;-75
2023/01/21 00:20:45;;;;;;;;;;;;;;;-1.83;78.25;98386.25;4895642;29;19931;-73
2023/01/21 00:23:37;;;;;;;;;;;;;;;-1.87;78.49;98385.88;4893498;29;19932;-73
2023/01/21 00:26:08;;;;;;;;;;;;;;;-1.86;78.48;98379.53;4896309;29;19928;-73
2023/01/21 00:28:38;;;;;;;;;;;;;;;-1.82;78.57;98386.03;4897414;29;19927;-73
2023/01/21 00:31:07;;;;;;;;;;;;;;;-1.80;78.08;98385.84;4874079;29;19931;-74
2023/01/21 00:33:36;;;;;;;;;;;;;;;-1.93;78.87;98392.09;4890133;29;20384;-74
2023/01/21 00:36:05;;;;;;;;;;;;;;;-1.87;78.95;98389.34;4883264;29;19927;-75
2023/01/21 00:38:33;;;;;;;;;;;;;;;-1.82;79.12;98393.22;4899218;29;20380;-75
2023/01/21 00:41:01;;;;;;;;;;;;;;;-1.87;79.13;98393.88;4898578;29;19935;-75
2023/01/21 00:43:30;;;;;;;;;;;;;;;-1.79;78.50;98400.78;4899803;29;19934;-75
2023/01/21 00:45:59;;;;;;;;;;;;;;;-1.76;78.56;98400.31;4899452;29;19944;-74
2023/01/21 00:48:28;;;;;;;;;;;;;;;-1.85;78.72;98402.47;4900596;29;20022;-74
2023/01/21 00:50:59;;;;;;;;;;;;;;;-1.75;79.04;98405.44;4897698;29;19943;-74
2023/01/21 00:53:28;;;;;;;;;;;;;;;-1.81;78.89;98408.16;4900762;29;20377;-74
2023/01/21 00:56:21;;;;;;;;;;;;;;;-1.80;79.10;98407.16;4899641;29;20413;-74
2023/01/21 00:58:49;;;;;;;;;;;;;;;-1.84;78.72;98406.75;4900348;29;20303;-74
2023/01/21 01:01:19;;;;;;;;;;;;;;;-1.94;78.92;98409.09;4899964;29;19927;-75
2023/01/21 01:03:47;;;;;;;;;;;;;;;-1.88;78.99;98411.69;4897400;29;19936;-75
2023/01/21 01:06:16;;;;;;;;;;;;;;;-1.77;78.43;98407.50;4898572;29;19928;-75
2023/01/21 01:08:46;;;;;;;;;;;;;;;-1.84;78.73;98414.75;4897848;29;19928;-75
2023/01/21 01:11:14;;;;;;;;;;;;;;;-1.83;78.55;98412.91;4894888;29;19963;-74
2023/01/21 01:13:42;;;;;;;;;;;;;;;-1.84;78.21;98420.06;4892991;29;19935;-73
2023/01/21 01:16:11;;;;;;;;;;;;;;;-1.81;78.02;98416.97;4898808;29;19928;-78
2023/01/21 01:19:04;;;;;;;;;;;;;;;-1.85;78.27;98427.25;4904832;29;20422;-79
2023/01/21 01:21:33;;;;;;;;;;;;;;;-1.87;78.53;98423.16;4899020;29;19927;-78
2023/01/21 01:24:02;;;;;;;;;;;;;;;-1.88;77.96;98430.34;4898357;29;19927;-78
2023/01/21 01:26:30;;;;;;;;;;;;;;;-1.92;78.54;98442.47;4899621;29;19927;-78
2023/01/21 01:28:59;;;;;;;;;;;;;;;-1.90;77.99;98434.28;4896576;29;19953;-78
2023/01/21 01:31:27;;;;;;;;;;;;;;;-1.95;78.19;98439.44;4896477;29;20380;-78
2023/01/21 01:33:56;;;;;;;;;;;;;;;-1.98;78.54;98451.31;4898672;29;20384;-78
2023/01/21 01:36:23;;;;;;;;;;;;;;;-2.09;78.47;98449.34;4899282;29;19928;-74
2023/01/21 01:38:53;;;;;;;;;;;;;;;-2.14;79.21;98443.88;4899539;29;19935;-74
2023/01/21 01:41:21;;;;;;;;;;;;;;;-2.09;79.21;98451.22;4898564;29;19927;-75
2023/01/21 01:43:51;;;;;;;;;;;;;;;-2.08;78.83;98456.31;4898728;29;19935;-76
2023/01/21 01:46:19;;;;;;;;;;;;;;;-2.10;78.51;98455.72;4897258;29;19932;-76
2023/01/21 01:48:48;;;;;;;;;;;;;;;-2.00;78.60;98456.06;4899341;29;19935;-75
2023/01/21 01:51:17;;;;;;;;;;;;;;;-1.91;78.34;98459.28;4887814;29;19934;-75
2023/01/21 01:53:45;;;;;;;;;;;;;;;-1.96;77.99;98461.78;4897910;29;19927;-75
2023/01/21 01:59:12;;;;;;;;;;;;;;;-2.07;76.95;98455.31;4897925;29;19942;-75
2023/01/21 02:01:40;;;;;;;;;;;;;;;-2.15;77.59;98461.69;4896649;29;20003;-75
2023/01/21 02:04:08;;;;;;;;;;;;;;;-2.06;77.76;98456.09;4898148;29;19937;-75
2023/01/21 02:07:00;;;;;;;;;;;;;;;-2.03;77.12;98455.66;4898353;29;19980;-75
2023/01/21 02:09:28;;;;;;;;;;;;;;;-2.10;77.01;98458.38;4898835;29;19931;-75
2023/01/21 02:11:58;;;;;;;;;;;;;;;-2.06;76.94;98454.25;4900177;29;19935;-76
2023/01/21 02:14:26;;;;;;;;;;;;;;;-2.08;76.50;98452.81;4898678;29;19935;-76
2023/01/21 02:17:00;;;;;;;;;;;;;;;-2.19;77.31;98452.50;4898605;29;20006;-79
2023/01/21 02:19:51;;;;;;;;;;;;;;;-2.14;77.61;98457.97;4888304;29;19927;-78
2023/01/21 02:22:21;;;;;;;;;;;;;;;-2.15;77.30;98448.38;4899445;29;19928;-78
2023/01/21 02:25:15;;;;;;;;;;;;;;;-2.17;77.38;98445.13;4896981;29;19992;-78
2023/01/21 02:27:46;;;;;;;;;;;;;;;-2.09;76.94;98445.88;4896583;29;19927;-78
2023/01/21 02:30:46;;;;;;;;;;;;;;;-2.07;76.48;98449.16;4898210;29;19935;-78
2023/01/21 02:33:18;;;;;;;;;;;;;;;-1.97;75.86;98454.78;4894546;29;19998;-78
2023/01/21 02:35:46;;;;;;;;;;;;;;;-2.08;75.70;98452.81;4901452;29;19931;-79
2023/01/21 02:38:16;;;;;;;;;;;;;;;-2.02;75.79;98452.00;4894400;29;19927;-78
2023/01/21 02:40:46;;;;;;;;;;;;;;;-2.08;76.05;98455.50;4896825;29;19995;-78
2023/01/21 02:43:15;;;;;;;;;;;;;;;-2.10;76.56;98445.06;4898833;29;19935;-78
2023/01/21 02:45:44;;;;;;;;;;;;;;;-2.04;76.22;98454.03;4890903;29;19935;-78
2023/01/21 02:48:39;;;;;;;;;;;;;;;-1.90;75.72;98444.91;4895519;29;20285;-79
2023/01/21 02:51:07;;;;;;;;;;;;;;;-1.96;75.62;98445.78;4884933;29;19932;-79
2023/01/21 02:54:01;;;;;;;;;;;;;;;-1.92;75.84;98446.97;4898898;29;19978;-79
2023/01/21 02:56:29;;;;;;;;;;;;;;;-2.00;75.65;98444.59;4881773;29;19927;-78
2023/01/21 02:58:58;;;;;;;;;;;;;;;-2.02;75.68;98452.81;4898182;29;20381;-78
2023/01/21 03:04:30;;;;;;;;;;;;;;;-2.15;76.00;98448.38;4886560;29;19934;-79
2023/01/21 03:07:00;;;;;;;;;;;;;;;-2.12;76.09;98455.94;4892421;29;19934;-79
2023/01/21 03:09:30;;;;;;;;;;;;;;;-2.12;76.48;98455.94;4898449;29;19956;-78
2023/01/21 03:12:01;;;;;;;;;;;;;;;-2.06;76.06;98453.44;4900375;29;19932;-78
2023/01/21 03:17:17;;;;;;;;;;;;;;;-2.11;75.83;98452.25;4899143;29;19927;-79
2023/01/21 03:19:46;;;;;;;;;;;;;;;-2.14;75.89;98457.19;4890956;29;19935;-79
2023/01/21 03:22:15;;;;;;;;;;;;;;;-2.09;75.64;98459.19;4899075;29;19935;-79
2023/01/21 03:24:44;;;;;;;;;;;;;;;-2.11;75.40;98460.22;4898747;29;19927;-79
2023/01/21 03:27:13;;;;;;;;;;;;;;;-2.02;75.46;98452.00;4899060;29;19937;-78
2023/01/21 03:30:06;;;;;;;;;;;;;;;-1.99;74.99;98459.53;4896376;29;20307;-78
2023/01/21 03:32:35;;;;;;;;;;;;;;;-2.01;75.24;98457.09;4897856;29;19934;-78
2023/01/21 03:35:05;;;;;;;;;;;;;;;-1.93;75.05;98451.47;4898079;29;19975;-78
2023/01/21 03:37:34;;;;;;;;;;;;;;;-1.95;74.75;98453.56;4897220;29;19935;-78
2023/01/21 03:40:04;;;;;;;;;;;;;;;-2.01;75.14;98451.75;4893599;29;19935;-79
2023/01/21 03:42:32;;;;;;;;;;;;;;;-2.04;75.23;98449.53;4895857;29;19931;-79
2023/01/21 03:45:00;;;;;;;;;;;;;;;-2.06;75.51;98461.44;4904066;29;20332;-78
2023/01/21 03:47:30;;;;;;;;;;;;;;;-1.98;75.90;98459.31;4897914;29;20406;-74
2023/01/21 03:49:59;;;;;;;;;;;;;;;-1.91;75.59;98453.94;4894000;29;19935;-75
2023/01/21 03:52:34;;;;;;;;;;;;;;;-1.85;75.06;98464.53;4896927;29;19928;-75
2023/01/21 03:55:02;;;;;;;;;;;;;;;-1.90;75.49;98452.91;4896886;29;19983;-75
2023/01/21 03:57:30;;;;;;;;;;;;;;;-1.89;75.59;98457.19;4911397;29;19950;-75
2023/01/21 03:59:58;;;;;;;;;;;;;;;-1.78;75.35;98453.81;4910098;29;19931;-75
2023/01/21 04:02:27;;;;;;;;;;;;;;;-1.80;75.62;98453.22;4910686;29;19927;-78
2023/01/21 04:05:20;;;;;;;;;;;;;;;-1.73;75.16;98445.19;4897092;29;20303;-78
2023/01/21 04:07:50;;;;;;;;;;;;;;;-1.79;75.56;98452.19;4903809;29;20005;-79
2023/01/21 04:10:18;;;;;;;;;;;;;;;-1.75;75.62;98448.06;4904379;29;20295;-78
2023/01/21 04:12:45;;;;;;;;;;;;;;;-1.68;75.41;98450.66;4914073;29;19942;-78
2023/01/21 04:15:13;;;;;;;;;;;;;;;-1.74;75.28;98449.69;4899648;29;20306;-78
2023/01/21 04:17:41;;;;;;;;;;;;;;;-1.78;75.72;98453.81;4899473;29;19983;-78
2023/01/21 04:20:09;;;;;;;;;;;;;;;-1.69;75.62;98439.19;4902121;29;19934;-78
2023/01/21 04:22:37;;;;;;;;;;;;;;;-1.70;75.79;98447.41;4900396;29;19935;-78
2023/01/21 04:25:07;;;;;;;;;;;;;;;-1.63;75.48;98440.97;4901235;29;20424;-78
2023/01/21 04:27:34;;;;;;;;;;;;;;;-1.71;75.48;98443.91;4911905;29;19934;-78
2023/01/21 04:30:02;;;;;;;;;;;;;;;-1.70;75.89;98445.56;4897851;29;19931;-78
2023/01/21 04:32:32;;;;;;;;;;;;;;;-1.70;75.84;98445.56;4908874;29;19950;-78
2023/01/21 04:35:00;;;;;;;;;;;;;;;-1.75;75.78;98445.41;4901520;29;19947;-78
2023/01/21 04:37:27;;;;;;;;;;;;;;;-1.80;76.10;98445.25;4901163;29;19950;-78
2023/01/21 04:39:55;;;;;;;;;;;;;;;-1.71;76.34;98443.09;4901078;29;19927;-79
2023/01/21 04:42:24;;;;;;;;;;;;;;;-1.72;76.16;98441.47;4901953;29;19931;-78
2023/01/21 04:45:18;;;;;;;;;;;;;;;-1.71;76.13;98443.91;4901210;29;19983;-78
2023/01/21 04:47:47;;;;;;;;;;;;;;;-1.73;76.35;98440.66;4900498;29;19927;-76
2023/01/21 04:50:16;;;;;;;;;;;;;;;-1.85;76.76;98443.22;4899834;29;20294;-76
2023/01/21 04:52:44;;;;;;;;;;;;;;;-1.87;77.16;98449.78;4900234;29;20543;-76
2023/01/21 04:55:12;;;;;;;;;;;;;;;-1.79;76.71;98444.19;4900079;29;20360;-75
2023/01/21 04:57:42;;;;;;;;;;;;;;;-1.79;77.08;98446.88;4900679;29;19958;-76
2023/01/21 05:00:10;;;;;;;;;;;;;;;-1.69;76.96;98452.50;4900288;29;19932;-75
2023/01/21 05:02:43;;;;;;;;;;;;;;;-1.66;76.66;98452.06;4894979;29;19927;-76
2023/01/21 05:05:11;;;;;;;;;;;;;;;-1.65;76.74;98456.38;4900022;29;19955;-76
2023/01/21 05:07:39;;;;;;;;;;;;;;;-1.66;76.69;98456.56;4899610;29;19934;-75
2023/01/21 05:10:08;;;;;;;;;;;;;;;-1.66;76.94;98453.91;4882445;29;19928;-76
2023/01/21 05:12:36;;;;;;;;;;;;;;;-1.59;76.56;98462.69;4899257;29;20401;-76
2023/01/21 05:15:05;;;;;;;;;;;;;;;-1.59;76.64;98458.16;4899848;29;19927;-76
2023/01/21 05:17:33;;;;;;;;;;;;;;;-1.61;76.49;98464.72;4899071;29;20364;-75
2023/01/21 05:20:01;;;;;;;;;;;;;;;-1.61;76.45;98454.06;4899675;29;20335;-75
2023/01/21 05:22:29;;;;;;;;;;;;;;;-1.66;76.61;98465.38;4897900;29;19966;-76
2023/01/21 05:24:59;;;;;;;;;;;;;;;-1.64;76.70;98465.19;4899197;29;20022;-77
2023/01/21 05:27:28;;;;;;;;;;;;;;;-1.61;76.67;98460.22;4897563;29;19927;-76
2023/01/21 05:29:56;;;;;;;;;;;;;;;-1.52;76.43;98468.75;4882896;29;19928;-75
2023/01/21 05:32:26;;;;;;;;;;;;;;;-1.49;76.24;98467.47;4898758;29;19927;-77
2023/01/21 05:34:53;;;;;;;;;;;;;;;-1.57;76.40;98468.59;4900036;29;19975;-76
2023/01/21 05:37:47;;;;;;;;;;;;;;;-1.65;77.02;98469.69;4898041;29;20366;-76
2023/01/21 05:40:15;;;;;;;;;;;;;;;-1.62;76.46;98473.75;4897834;29;19934;-76
2023/01/21 05:42:44;;;;;;;;;;;;;;;-1.63;76.31;98469.47;4894754;29;20280;-76
2023/01/21 05:45:13;;;;;;;;;;;;;;;-1.58;76.35;98473.09;4899187;29;19927;-76
2023/01/21 05:47:42;;;;;;;;;;;;;;;-1.68;76.44;98472.78;4899324;29;20387;-76
2023/01/21 05:50:11;;;;;;;;;;;;;;;-1.78;77.02;98480.44;4891517;29;19927;-76
2023/01/21 05:52:39;;;;;;;;;;;;;;;-1.75;77.00;98482.69;4898645;29;19927;-76
2023/01/21 05:55:07;;;;;;;;;;;;;;;-1.75;76.89;98488.03;4897968;29;19927;-75
2023/01/21 05:57:35;;;;;;;;;;;;;;;-1.71;77.18;98478.53;4895130;29;19979;-76
2023/01/21 06:00:04;;;;;;;;;;;;;;;-1.69;77.27;98483.66;4895994;29;19931;-76
2023/01/21 06:02:56;;;;;;;;;;;;;;;-1.57;76.74;98484.56;4896318;29;19928;-75
2023/01/21 06:05:26;;;;;;;;;;;;;;;-1.53;76.44;98487.63;4896257;29;19934;-76
2023/01/21 06:08:19;;;;;;;;;;;;;;;-1.51;76.44;98486.34;4896996;29;19955;-76
2023/01/21 06:10:47;;;;;;;;;;;;;;;-1.55;76.50;98487.00;4897545;29;19983;-76
2023/01/21 06:13:15;;;;;;;;;;;;;;;-1.51;76.57;98482.88;4898250;29;19927;-76
2023/01/21 06:15:43;;;;;;;;;;;;;;;-1.50;75.86;98487.19;4897122;29;20319;-76
2023/01/21 06:18:11;;;;;;;;;;;;;;;-1.45;76.39;98485.47;4891741;29;19975;-76
2023/01/21 06:20:40;;;;;;;;;;;;;;;-1.48;76.08;98490.44;4895662;29;20003;-75
2023/01/21 06:23:08;;;;;;;;;;;;;;;-1.53;76.13;98485.78;4894100;29;19936;-77
2023/01/21 06:25:42;;;;;;;;;;;;;;;-1.44;76.06;98480.97;4878323;29;20014;-76
2023/01/21 06:28:16;;;;;;;;;;;;;;;-1.50;76.56;98481.84;4897225;29;19928;-76
2023/01/21 06:30:45;;;;;;;;;;;;;;;-1.43;76.19;98485.28;4878932;29;19931;-77
2023/01/21 06:33:13;;;;;;;;;;;;;;;-1.46;76.32;98483.84;4896767;29;21318;-76
2023/01/21 06:35:42;;;;;;;;;;;;;;;-1.37;76.23;98484.41;4883303;29;19933;-76
2023/01/21 06:38:11;;;;;;;;;;;;;;;-1.42;76.23;98484.25;4904993;29;19927;-76
2023/01/21 06:40:38;;;;;;;;;;;;;;;-1.31;75.67;98483.50;4895365;29;19927;-76
2023/01/21 06:43:08;;;;;;;;;;;;;;;-1.37;75.80;98481.72;4895938;29;19935;-76
2023/01/21 06:45:36;;;;;;;;;;;;;;;-1.35;75.90;98495.63;4895313;29;19928;-76
2023/01/21 06:48:05;;;;;;;;;;;;;;;-1.37;76.06;98493.22;4894219;29;19935;-78
2023/01/21 06:50:33;;;;;;;;;;;;;;;-1.29;75.99;98497.41;4892884;29;19986;-74
2023/01/21 06:56:01;;;;;;;;;;;;;;;-1.18;75.44;98499.34;4900927;29;19912;-79
2023/01/21 06:58:31;;;;;;;;;;;;;;;-1.18;75.42;98502.03;5243386;23;19915;-77
2023/01/21 07:00:59;;;;;;;;;;;;;;;-1.27;75.89;98506.03;5024052;23;19927;-74
2023/01/21 07:03:28;;;;;;;;;;;;;;;-1.19;75.54;98507.59;4896915;29;19928;-77
2023/01/21 07:05:55;;;;;;;;;;;;;;;-1.08;74.93;98505.00;4899251;29;19927;-76
2023/01/21 07:08:24;;;;;;;;;;;;;;;-1.06;74.92;98510.94;4898096;29;19987;-74
2023/01/21 07:10:52;;;;;;;;;;;;;;;-1.03;74.78;98519.53;4895632;29;19938;-75
2023/01/21 07:13:20;;;;;;;;;;;;;;;-1.04;75.05;98510.72;4878475;29;20392;-73
2023/01/21 07:15:49;;;;;;;;;;;;;;;-1.02;75.01;98515.81;4892216;29;19943;-74
2023/01/21 07:18:17;;;;;;;;;;;;;;;-1.00;74.84;98516.41;4897820;29;19938;-75
2023/01/21 07:20:44;;;;;;;;;;;;;;;-0.89;74.71;98521.00;4895872;29;19927;-75
2023/01/21 07:23:13;;;;;;;;;;;;;;;-1.03;74.59;98522.19;4895425;29;19935;-74
2023/01/21 07:25:47;;;;;;;;;;;;;;;-0.98;74.91;98525.00;4879499;29;19935;-78
2023/01/21 07:28:14;;;;;;;;;;;;;;;-1.03;74.88;98520.34;4894802;29;19935;-74
2023/01/21 07:30:42;;;;;;;;;;;;;;;-1.06;75.17;98516.28;4895617;29;20299;-72
2023/01/21 07:33:12;;;;;;;;;;;;;;;-1.04;74.74;98524.03;4878974;29;19928;-74
2023/01/21 07:35:42;;;;;;;;;;;;;;;-1.07;75.15;98517.28;4896080;29;19958;-73
2023/01/21 07:38:11;;;;;;;;;;;;;;;-1.05;75.09;98514.41;4895454;29;20379;-73
2023/01/21 07:40:39;;;;;;;;;;;;;;;-1.04;75.07;98515.22;4879312;29;20318;-72
2023/01/21 07:43:09;;;;;;;;;;;;;;;-1.06;75.01;98520.78;4895757;29;19935;-72
2023/01/21 07:45:40;;;;;;;;;;;;;;;-1.01;74.78;98525.44;4883774;29;19931;-79
2023/01/21 07:48:08;;;;;;;;;;;;;;;-0.94;74.50;98520.88;4902110;29;19928;-78
2023/01/21 08:11:10;;;;;;;;;;;;;;;-1.08;75.01;98517.50;5920759;23;21289;-80
2023/01/21 08:16:28;;;;;;;;;;;;;;;-0.93;74.71;98525.16;5087417;23;19927;-78
2023/01/21 08:18:57;;;;;;;;;;;;;;;-0.96;74.71;98520.25;4935627;29;19982;-71
2023/01/21 08:21:25;;;;;;;;;;;;;;;-0.96;74.38;98525.59;4937111;28;19930;-71
2023/01/21 08:23:53;;;;;;;;;;;;;;;-1.01;74.34;98528.94;4937578;29;20333;-71
2023/01/21 08:26:23;;;;;;;;;;;;;;;-0.94;74.65;98531.53;4934404;29;19938;-71
2023/01/21 08:28:53;;;;;;;;;;;;;;;-0.86;74.06;98534.69;4943206;28;19966;-71
2023/01/21 08:31:21;;;;;;;;;;;;;;;-0.87;74.16;98532.28;4936925;29;19938;-71
2023/01/21 08:33:49;;;;;;;;;;;;;;;-0.80;73.97;98533.00;4919972;29;19926;-71
2023/01/21 08:36:17;;;;;;;;;;;;;;;-0.77;73.86;98540.56;4937227;29;19950;-72
2023/01/21 08:38:45;;;;;;;;;;;;;;;-0.73;74.01;98538.28;4936368;29;19927;-72
2023/01/21 08:41:16;;;;;;;;;;;;;;;-0.70;73.96;98548.50;4938789;29;19939;-72
2023/01/21 08:43:46;;;;;;;;;;;;;;;-0.84;74.24;98539.84;4935603;29;20441;-72
2023/01/21 08:46:14;;;;;;;;;;;;;;;-0.75;74.15;98543.00;4937543;29;19930;-72
2023/01/21 08:48:43;;;;;;;;;;;;;;;-0.74;74.09;98544.66;4930825;29;19931;-72
2023/01/21 08:51:11;;;;;;;;;;;;;;;-0.69;73.56;98553.63;4937862;29;19937;-72
2023/01/21 08:54:05;;;;;;;;;;;;;;;-0.69;73.83;98553.63;4936965;29;19982;-72
2023/01/21 08:56:33;;;;;;;;;;;;;;;-0.58;73.03;98560.88;4917924;29;19926;-72
2023/01/21 08:59:02;;;;;;;;;;;;;;;-0.62;73.02;98558.88;4936688;29;19934;-72
2023/01/21 09:01:32;;;;;;;;;;;;;;;-0.80;73.69;98557.00;4936763;29;19934;-72
2023/01/21 09:04:00;;;;;;;;;;;;;;;-0.74;73.84;98561.47;4936567;29;19927;-72
2023/01/21 09:06:52;;;;;;;;;;;;;;;-0.66;73.58;98566.50;4918659;29;19930;-72
2023/01/21 09:09:21;;;;;;;;;;;;;;;-0.67;73.83;98564.88;4920263;29;19927;-72
2023/01/21 09:11:51;;;;;;;;;;;;;;;-0.66;73.25;98569.16;4936554;29;20057;-72
2023/01/21 09:14:22;;;;;;;;;;;;;;;-0.67;73.69;98578.22;4935463;29;19931;-72
2023/01/21 09:16:51;;;;;;;;;;;;;;;-0.57;73.20;98578.53;4936165;29;20369;-75
2023/01/21 09:19:19;;;;;;;;;;;;;;;-0.50;72.70;98582.97;4936620;29;19927;-75
2023/01/21 09:21:47;;;;;;;;;;;;;;;-0.46;72.84;98578.81;4936858;29;20357;-75
2023/01/21 09:24:16;;;;;;;;;;;;;;;-0.47;72.95;98585.19;4936663;29;19933;-75
2023/01/21 09:26:44;;;;;;;;;;;;;;;-0.32;72.19;98574.91;4933722;29;19927;-76
2023/01/21 09:29:12;;;;;;;;;;;;;;;-0.40;72.15;98594.75;4935249;29;20088;-75
2023/01/21 09:31:42;;;;;;;;;;;;;;;-0.29;72.40;98593.19;4934116;29;20010;-76
2023/01/21 09:34:12;;;;;;;;;;;;;;;-0.11;72.18;98598.47;4936309;29;20029;-75
2023/01/21 09:36:43;;;;;;;;;;;;;;;0.04;71.36;98594.59;4935773;29;20441;-71
2023/01/21 09:39:11;;;;;;;;;;;;;;;0.10;71.35;98596.38;4935995;29;20283;-70
2023/01/21 09:41:39;;;;;;;;;;;;;;;0.19;70.53;98597.69;4935532;29;19930;-69
2023/01/21 09:44:33;;;;;;;;;;;;;;;-0.02;70.65;98597.13;4935595;29;20405;-70
2023/01/21 09:47:04;;;;;;;;;;;;;;;0.17;70.80;98605.13;4936293;29;19926;-69
2023/01/21 09:49:34;;;;;;;;;;;;;;;0.26;70.91;98604.53;4937681;29;19966;-70
2023/01/21 09:52:04;;;;;;;;;;;;;;;0.16;70.95;98601.63;4936306;29;19931;-69
2023/01/21 09:54:32;;;;;;;;;;;;;;;0.13;70.46;98603.94;4930189;29;19927;-70
2023/01/21 09:57:21;;;;;;;;;;;;;;;0.01;70.69;98603.09;4917181;29;19961;-69
2023/01/21 10:00:00;;;;;;;;;;;;;;;-0.12;70.74;98604.88;4933134;29;20328;-69
2023/01/21 10:02:41;;;;;;;;;;;;;;;-0.33;69.75;98605.34;4931997;29;20279;-69
2023/01/21 10:05:22;;;;;;;;;;;;;;;-0.27;68.50;98612.44;4934550;29;19982;-69
2023/01/21 10:07:51;;;;;;;;;;;;;;;-0.48;67.68;98602.22;4934161;29;20387;-69
2023/01/21 10:10:20;;;;;;;;;;;;;;;-0.50;67.38;98596.31;4935887;29;19934;-69
2023/01/21 10:12:56;;;;;;;;;;;;;;;-0.29;67.26;98607.34;4933558;29;20442;-70
2023/01/21 10:15:36;;;;;;;;;;;;;;;-0.22;66.61;98612.59;4935177;29;20370;-69
2023/01/21 10:18:06;;;;;;;;;;;;;;;-0.12;66.76;98606.72;4918360;29;19971;-69
2023/01/21 10:20:37;;;;;;;;;;;;;;;-0.31;66.45;98603.28;4918420;29;19927;-69
2023/01/21 10:23:07;;;;;;;;;;;;;;;-0.29;66.79;98607.34;4929332;29;19934;-69
2023/01/21 10:25:35;;;;;;;;;;;;;;;-0.24;66.76;98609.34;4917656;29;19927;-69
2023/01/21 10:28:05;;;;;;;;;;;;;;;-0.36;67.46;98605.81;4934604;29;19931;-69
2023/01/21 10:30:35;;;;;;;;;;;;;;;-0.33;67.70;98610.69;4918063;29;19931;-69
2023/01/21 10:33:03;;;;;;;;;;;;;;;-0.42;68.07;98609.38;4932945;29;19930;-70
2023/01/21 10:35:37;;;;;;;;;;;;;;;-0.43;67.27;98608.53;4935185;29;19926;-69
2023/01/21 10:38:07;;;;;;;;;;;;;;;-0.37;67.37;98618.34;4917334;29;20013;-69
2023/01/21 10:40:44;;;;;;;;;;;;;;;-0.35;67.15;98618.09;4934883;29;19926;-69
2023/01/21 10:43:14;;;;;;;;;;;;;;;-0.41;67.02;98609.13;4932896;29;19938;-69
2023/01/21 10:45:43;;;;;;;;;;;;;;;-0.48;67.22;98615.56;4935409;29;19927;-72
2023/01/21 10:48:14;;;;;;;;;;;;;;;-0.39;67.78;98624.91;4935385;29;20382;-69
2023/01/21 10:51:06;;;;;;;;;;;;;;;-0.31;67.15;98613.97;4934754;29;19941;-69
2023/01/21 10:56:34;;;;;;;;;;;;;;;-0.33;67.00;98608.81;4932620;29;19981;-69
2023/01/21 10:59:03;;;;;;;;;;;;;;;-0.31;67.64;98612.09;4934528;29;19934;-69
2023/01/21 11:01:32;;;;;;;;;;;;;;;-0.16;67.36;98617.06;4918540;29;19926;-70
2023/01/21 11:06:58;;;;;;;;;;;;;;;-0.03;66.94;98610.72;4937508;29;19927;-71
2023/01/21 11:09:31;;;;;;;;;;;;;;;-0.10;66.44;98605.47;4931206;29;19966;-71
2023/01/21 11:11:59;;;;;;;;;;;;;;;-0.22;66.73;98599.25;4933508;29;20366;-71
2023/01/21 11:14:27;;;;;;;;;;;;;;;-0.37;66.55;98598.84;4934205;29;19926;-71
2023/01/21 11:16:56;;;;;;;;;;;;;;;-0.28;68.59;98598.28;4915951;29;19927;-71
2023/01/21 11:19:25;;;;;;;;;;;;;;;-0.18;67.18;98596.94;4934457;29;20306;-73
2023/01/21 11:21:57;;;;;;;;;;;;;;;-0.21;66.61;98598.22;4935388;29;20495;-76
2023/01/21 11:24:29;;;;;;;;;;;;;;;-0.13;66.03;98600.56;4936112;28;19935;-80
2023/01/21 11:30:16;;;;;;;;;;;;;;;-0.15;65.39;98589.31;4932997;29;20390;-76
2023/01/21 11:33:20;;;;;;;;;;;;;;;-0.06;66.16;98592.47;4930462;29;19935;-76
2023/01/21 11:36:13;;;;;;;;;;;;;;;0.14;65.50;98585.00;4933163;29;20314;-71
2023/01/21 11:38:41;;;;;;;;;;;;;;;0.12;65.17;98580.94;4918858;29;20021;-71
2023/01/21 11:41:15;;;;;;;;;;;;;;;0.15;65.02;98583.13;4931021;29;20397;-71
2023/01/21 11:43:45;;;;;;;;;;;;;;;0.11;65.33;98579.31;4929429;29;19927;-71
2023/01/21 11:46:27;;;;;;;;;;;;;;;0.02;65.72;98586.00;4930328;29;19927;-71
2023/01/21 11:48:56;;;;;;;;;;;;;;;0.03;65.83;98587.63;4914480;29;19935;-72
2023/01/21 11:51:24;;;;;;;;;;;;;;;0.13;65.97;98579.88;4932464;29;19931;-71
2023/01/21 11:54:06;;;;;;;;;;;;;;;0.17;65.21;98576.53;4930904;29;19933;-71
2023/01/21 11:56:36;;;;;;;;;;;;;;;-0.01;65.34;98577.38;4913863;29;19934;-71
2023/01/21 11:59:12;;;;;;;;;;;;;;;-0.02;65.57;98581.09;4931036;29;19933;-72
2023/01/21 12:01:40;;;;;;;;;;;;;;;-0.29;65.57;98566.47;4932986;29;20298;-71
2023/01/21 12:04:33;;;;;;;;;;;;;;;-0.25;65.97;98565.00;4931975;29;20394;-72
2023/01/21 12:07:01;;;;;;;;;;;;;;;-0.29;66.23;98563.81;4912804;29;19950;-72
2023/01/21 12:09:30;;;;;;;;;;;;;;;-0.23;65.83;98562.91;4929628;29;19978;-71
2023/01/21 12:12:04;;;;;;;;;;;;;;;-0.31;66.10;98561.38;4928808;29;19930;-71
2023/01/21 12:14:36;;;;;;;;;;;;;;;-0.31;65.92;98560.56;4916774;29;19927;-72
2023/01/21 12:17:05;;;;;;;;;;;;;;;-0.34;66.18;98561.81;4934127;29;19931;-79
2023/01/21 12:19:40;;;;;;;;;;;;;;;-0.23;66.43;98548.75;4919757;29;19930;-79
2023/01/21 12:22:11;;;;;;;;;;;;;;;0.01;66.14;98552.31;4936417;29;20002;-79
2023/01/21 12:24:42;;;;;;;;;;;;;;;-0.09;65.62;98552.88;4924239;29;19934;-79
2023/01/21 12:27:13;;;;;;;;;;;;;;;-0.05;66.19;98548.72;4918635;29;19931;-76
2023/01/21 12:30:12;;;;;;;;;;;;;;;-0.06;65.64;98550.53;4934509;29;20006;-75
2023/01/21 12:32:40;;;;;;;;;;;;;;;0.07;65.76;98540.72;4918360;29;20017;-75
2023/01/21 12:35:12;;;;;;;;;;;;;;;0.01;65.14;98534.44;4934837;29;20350;-75
2023/01/21 12:37:41;;;;;;;;;;;;;;;0.10;65.20;98534.91;4919163;29;20248;-75
2023/01/21 12:40:13;;;;;;;;;;;;;;;0.19;65.18;98539.72;4937645;29;21087;-75
2023/01/21 12:42:42;;;;;;;;;;;;;;;0.13;64.44;98539.81;4918809;29;20026;-76
2023/01/21 12:45:13;;;;;;;;;;;;;;;0.15;64.56;98541.19;4922190;29;19933;-75
2023/01/21 12:47:42;;;;;;;;;;;;;;;0.13;64.34;98542.47;4934614;29;20370;-75
2023/01/21 12:50:14;;;;;;;;;;;;;;;0.11;64.24;98558.75;4920793;29;20303;-75
2023/01/21 12:52:44;;;;;;;;;;;;;;;0.05;64.65;98553.47;4935314;29;20296;-75
2023/01/21 12:55:14;;;;;;;;;;;;;;;0.06;64.54;98549.78;4917204;29;19981;-75
2023/01/21 12:57:44;;;;;;;;;;;;;;;0.10;64.84;98566.97;4937172;29;20374;-75
2023/01/21 13:00:19;;;;;;;;;;;;;;;0.11;64.68;98560.59;4918768;29;19931;-76
2023/01/21 13:02:50;;;;;;;;;;;;;;;-0.20;65.59;98572.34;4920611;29;19930;-75
2023/01/21 13:05:18;;;;;;;;;;;;;;;-0.35;66.32;98572.72;4937300;29;19927;-76
2023/01/21 13:07:48;;;;;;;;;;;;;;;-0.35;66.40;98568.19;4938071;29;20048;-75
2023/01/21 13:10:17;;;;;;;;;;;;;;;-0.35;66.46;98564.72;4934689;29;19955;-76
2023/01/21 13:12:49;;;;;;;;;;;;;;;-0.36;66.38;98565.75;4936393;29;19931;-75
2023/01/21 13:15:19;;;;;;;;;;;;;;;-0.23;66.40;98573.59;4934500;29;19927;-75
2023/01/21 13:17:48;;;;;;;;;;;;;;;-0.23;66.81;98568.25;4934623;29;20301;-76
2023/01/21 13:20:17;;;;;;;;;;;;;;;-0.23;66.42;98567.44;4935695;28;19937;-76
2023/01/21 13:22:47;;;;;;;;;;;;;;;-0.16;66.33;98571.66;4936133;29;19966;-76
2023/01/21 13:25:19;;;;;;;;;;;;;;;-0.15;66.59;98570.63;4934594;28;20452;-76
2023/01/21 13:28:12;;;;;;;;;;;;;;;-0.17;66.79;98572.69;4934956;29;19934;-77
2023/01/21 13:30:47;;;;;;;;;;;;;;;-0.13;66.89;98567.72;4931569;29;20369;-76
2023/01/21 13:33:18;;;;;;;;;;;;;;;-0.10;66.64;98569.94;4935726;29;19927;-76
2023/01/21 13:35:51;;;;;;;;;;;;;;;-0.21;66.36;98570.69;4937258;29;19933;-72
2023/01/21 13:38:21;;;;;;;;;;;;;;;-0.33;67.11;98570.63;4936791;29;19936;-72
2023/01/21 13:40:52;;;;;;;;;;;;;;;-0.32;67.00;98573.09;4937820;29;19926;-72
2023/01/21 13:43:24;;;;;;;;;;;;;;;-0.40;67.52;98570.72;4936788;29;19931;-72
2023/01/21 13:48:55;;;;;;;;;;;;;;;-0.39;68.19;98574.19;4935743;29;19968;-73
2023/01/21 13:51:26;;;;;;;;;;;;;;;-0.34;68.16;98572.50;4915710;29;20449;-74
2023/01/21 13:54:11;;;;;;;;;;;;;;;-0.16;68.60;98569.00;4931660;29;19938;-73
2023/01/21 13:56:49;;;;;;;;;;;;;;;-0.04;68.45;98567.16;4935496;29;19927;-73